createdAt,value
2023-05-13T00:08:30.394Z,100523.63
2023-05-13T00:18:35.338Z,100517.63
2023-05-13T00:28:39.100Z,100519.91
2023-05-13T00:38:44.984Z,100527.50
2023-05-13T00:48:48.869Z,100533.59
2023-05-13T00:58:53.955Z,100546.03
2023-05-13T01:09:04.715Z,100536.00
2023-05-13T01:19:30.858Z,100539.53
2023-05-13T01:29:36.413Z,100535.53
2023-05-13T01:39:40.598Z,100532.41
2023-05-13T01:49:45.632Z,100545.25
2023-05-13T01:59:49.363Z,100537.31
2023-05-13T02:09:59.461Z,100540.44
2023-05-13T02:20:03.512Z,100542.75
2023-05-13T02:30:10.224Z,100542.34
2023-05-13T02:40:14.796Z,100535.50
2023-05-13T02:50:20.388Z,100529.06
2023-05-13T03:00:24.261Z,100537.72
2023-05-13T03:10:29.573Z,100542.47
2023-05-13T03:20:34.315Z,100536.72
2023-05-13T03:30:39.460Z,100541.25
2023-05-13T03:40:43.075Z,100545.56
2023-05-13T03:50:48.038Z,100552.78
2023-05-13T04:00:51.723Z,100558.56
2023-05-13T04:10:57.457Z,100557.53
2023-05-13T04:21:01.156Z,100559.81
2023-05-13T04:31:06.065Z,100563.59
2023-05-13T04:41:09.698Z,100572.09
2023-05-13T04:51:14.854Z,100577.78
2023-05-13T05:01:18.913Z,100584.69
2023-05-13T05:11:23.928Z,100594.41
2023-05-13T05:21:27.823Z,100603.22
2023-05-13T05:31:32.888Z,100607.81
2023-05-13T05:41:36.840Z,100613.72
2023-05-13T05:51:41.758Z,100621.91
2023-05-13T06:01:46.103Z,100625.59
2023-05-13T06:11:51.080Z,100621.09
2023-05-13T06:21:54.726Z,100628.31
2023-05-13T06:31:59.642Z,100628.00
2023-05-13T06:42:03.358Z,100623.09
2023-05-13T06:52:09.545Z,100622.19
2023-05-13T07:02:13.172Z,100626.38
2023-05-13T07:12:19.133Z,100616.34
2023-05-13T07:22:22.937Z,100609.00
2023-05-13T07:32:31.313Z,100595.00
2023-05-13T07:42:35.055Z,100601.44
2023-05-13T07:52:40.256Z,100602.47
2023-05-13T08:02:44.607Z,100603.31
2023-05-13T08:12:53.505Z,100584.06
2023-05-13T08:22:58.176Z,100570.94
2023-05-13T08:33:03.811Z,100563.31
2023-05-13T08:43:08.399Z,100557.22
2023-05-13T08:53:14.378Z,100547.00
2023-05-13T09:03:18.150Z,100541.72
2023-05-13T09:13:23.280Z,100540.94
2023-05-13T09:23:28.144Z,100530.22
2023-05-13T09:33:33.552Z,100546.75
2023-05-13T09:43:40.244Z,100532.13
2023-05-13T09:53:48.613Z,100533.16
2023-05-13T10:03:53.104Z,100507.84
2023-05-13T10:14:02.874Z,100501.72
2023-05-13T10:24:08.454Z,100486.50
2023-05-13T10:34:14.275Z,100470.16
2023-05-13T10:44:20.698Z,100466.38
2023-05-13T10:54:25.726Z,100456.72
2023-05-13T11:04:29.449Z,100454.88
2023-05-13T11:14:37.255Z,100455.09
2023-05-13T11:24:42.327Z,100438.94
2023-05-13T11:34:53.640Z,100442.34
2023-05-13T11:44:58.531Z,100425.25
2023-05-13T11:55:04.244Z,100443.97
2023-05-13T12:05:12.449Z,100436.22
2023-05-13T12:15:19.854Z,100447.38
2023-05-13T12:25:44.240Z,100481.31
2023-05-13T12:35:52.405Z,100486.53
2023-05-13T12:45:56.524Z,100490.31
2023-05-13T12:56:01.983Z,100491.63
2023-05-13T13:06:06.470Z,100517.09
2023-05-13T13:16:11.790Z,100485.34
2023-05-13T13:26:15.621Z,100499.78
2023-05-13T13:36:20.760Z,100495.19
2023-05-13T13:46:24.518Z,100483.28
2023-05-13T13:56:29.503Z,100461.84
2023-05-13T14:06:33.509Z,100459.13
2023-05-13T14:16:38.551Z,100451.50
2023-05-13T14:26:42.291Z,100449.13
2023-05-13T14:36:47.436Z,100443.09
2023-05-13T14:46:51.798Z,100439.56
2023-05-13T14:56:56.776Z,100435.41
2023-05-13T15:07:00.548Z,100419.97
2023-05-13T15:17:10.811Z,100425.13
2023-05-13T15:27:15.733Z,100419.97
2023-05-13T15:37:20.871Z,100415.69
2023-05-13T15:47:24.720Z,100414.81
2023-05-13T15:57:29.882Z,100413.03
2023-05-13T16:07:33.709Z,100403.72
2023-05-13T16:17:39.055Z,100382.97
2023-05-13T16:27:43.962Z,100391.72
2023-05-13T16:37:49.273Z,100377.09
2023-05-13T16:47:52.965Z,100370.50
2023-05-13T16:57:57.957Z,100350.84
2023-05-13T17:08:02.036Z,100348.19
2023-05-13T17:18:07.560Z,100334.22
2023-05-13T17:28:11.536Z,100320.22
2023-05-13T17:38:16.627Z,100338.63
2023-05-13T17:48:20.379Z,100343.78
2023-05-13T17:58:25.481Z,100351.25
2023-05-13T18:08:29.371Z,100383.69
2023-05-13T18:18:34.869Z,100400.25
2023-05-13T18:28:38.640Z,100409.53
2023-05-13T18:38:45.861Z,100440.19
2023-05-13T18:48:49.506Z,100447.50
2023-05-13T18:58:54.785Z,100465.50
2023-05-13T19:08:58.468Z,100485.41
2023-05-13T19:19:03.688Z,100487.03
2023-05-13T19:29:08.601Z,100492.44
2023-05-13T19:39:13.683Z,100497.78
2023-05-13T19:49:17.266Z,100511.75
2023-05-13T19:59:22.364Z,100512.19
2023-05-13T20:09:26.921Z,100511.75
2023-05-13T20:19:31.990Z,100507.25
2023-05-13T20:29:37.058Z,100515.38
2023-05-13T20:39:42.194Z,100516.56
2023-05-13T20:49:46.480Z,100525.19
2023-05-13T20:59:55.492Z,100515.44
2023-05-13T21:09:59.436Z,100514.19
2023-05-13T21:20:05.543Z,100504.25
2023-05-13T21:30:10.873Z,100519.59
2023-05-13T21:40:16.665Z,100518.72
2023-05-13T21:50:20.729Z,100503.31
2023-05-13T22:00:26.507Z,100510.72
2023-05-13T22:10:32.158Z,100502.63
2023-05-13T22:20:37.254Z,100496.31
2023-05-13T22:30:41.065Z,100509.13
2023-05-13T22:40:46.318Z,100504.69
2023-05-13T22:50:49.983Z,100510.41
2023-05-13T23:00:55.025Z,100500.47
2023-05-13T23:10:58.769Z,100495.47
2023-05-13T23:21:04.276Z,100503.91
2023-05-13T23:31:08.093Z,100499.97
2023-05-13T23:41:13.203Z,100486.66
2023-05-13T23:51:17.050Z,100490.38
